Time,TemperatureF,DewpointF,PressureIn,WindDirection,WindDirectionDegrees,WindSpeedMPH,WindSpeedGustMPH,Humidity,HourlyPrecipIn,Conditions,Clouds,dailyrainin,SoftwareType,DateUTC
2013-04-30 00:01:00,36.1,35.3,30.22,SW,217,0.0,0.0,97,0.00,,,0.00,weather-2.5,2013-04-30 04:01:00,
2013-04-30 00:06:00,36.3,35.5,30.22,SW,217,0.0,0.0,97,0.00,,,0.00,weather-2.5,2013-04-30 04:06:00,
2013-04-30 00:11:00,36.1,35.3,30.22,SW,217,0.0,0.0,97,0.00,,,0.00,weather-2.5,2013-04-30 04:11:00,
2013-04-30 00:16:00,35.9,35.1,30.22,SW,217,0.0,0.0,97,0.00,,,0.00,weather-2.5,2013-04-30 04:16:00,
2013-04-30 00:21:00,35.7,34.9,30.22,SW,217,0.0,0.0,97,0.00,,,0.00,weather-2.5,2013-04-30 04:21:00,
2013-04-30 00:26:00,35.3,34.3,30.22,SW,217,0.0,0.0,96,0.00,,,0.00,weather-2.5,2013-04-30 04:26:00,
2013-04-30 00:31:00,35.0,34.0,30.22,SW,217,0.0,0.0,96,0.00,,,0.00,weather-2.5,2013-04-30 04:31:00,
2013-04-30 00:36:00,35.2,34.4,30.22,SW,217,0.0,0.0,97,0.00,,,0.00,weather-2.5,2013-04-30 04:36:00,
2013-04-30 00:41:00,35.2,34.4,30.22,SW,217,0.0,0.0,97,0.00,,,0.00,weather-2.5,2013-04-30 04:41:00,
2013-04-30 00:46:00,34.9,34.1,30.21,SW,217,0.0,0.0,97,0.00,,,0.00,weather-2.5,2013-04-30 04:46:00,
2013-04-30 00:53:00,34.8,34.0,30.22,SW,217,0.0,0.0,97,0.00,,,0.00,weather-2.5,2013-04-30 04:53:00,
2013-04-30 00:58:00,34.7,33.9,30.21,SW,217,0.0,0.0,97,0.00,,,0.00,weather-2.5,2013-04-30 04:58:00,
2013-04-30 01:03:00,34.6,33.8,30.21,SW,217,0.0,0.0,97,0.00,,,0.00,weather-2.5,2013-04-30 05:03:00,
2013-04-30 01:08:00,34.7,33.9,30.22,SW,217,0.0,0.0,97,0.00,,,0.00,weather-2.5,2013-04-30 05:08:00,
2013-04-30 01:13:00,34.9,34.1,30.22,SW,217,0.0,0.0,97,0.00,,,0.00,weather-2.5,2013-04-30 05:13:00,
2013-04-30 01:18:00,34.8,34.0,30.22,SW,217,0.0,0.0,97,0.00,,,0.00,weather-2.5,2013-04-30 05:18:00,
2013-04-30 01:23:00,35.0,34.2,30.21,SW,217,0.0,0.0,97,0.00,,,0.00,weather-2.5,2013-04-30 05:23:00,
2013-04-30 01:28:00,34.8,34.0,30.21,SW,217,0.0,0.0,97,0.00,,,0.00,weather-2.5,2013-04-30 05:28:00,
2013-04-30 01:33:00,34.5,33.7,30.21,SW,217,0.0,0.0,97,0.00,,,0.00,weather-2.5,2013-04-30 05:33:00,
2013-04-30 01:38:00,34.2,33.4,30.21,SW,217,0.0,0.0,97,0.00,,,0.00,weather-2.5,2013-04-30 05:38:00,
2013-04-30 01:43:00,34.1,33.3,30.21,SW,217,0.0,0.0,97,0.00,,,0.00,weather-2.5,2013-04-30 05:43:00,
2013-04-30 01:48:00,34.1,33.3,30.21,SW,217,0.0,0.0,97,0.00,,,0.00,weather-2.5,2013-04-30 05:48:00,
2013-04-30 01:53:00,34.1,33.3,30.21,SW,217,0.0,0.0,97,0.00,,,0.00,weather-2.5,2013-04-30 05:53:00,
2013-04-30 01:58:00,33.9,33.1,30.21,SW,217,0.0,0.0,97,0.00,,,0.00,weather-2.5,2013-04-30 05:58:00,
2013-04-30 02:03:00,33.8,33.0,30.21,SW,217,0.0,0.0,97,0.00,,,0.00,weather-2.5,2013-04-30 06:03:00,
2013-04-30 02:08:00,33.8,33.0,30.21,SW,217,0.0,0.0,97,0.00,,,0.00,weather-2.5,2013-04-30 06:08:00,
2013-04-30 02:13:00,33.9,33.1,30.21,SW,217,0.0,0.0,97,0.00,,,0.00,weather-2.5,2013-04-30 06:13:00,
2013-04-30 02:18:00,34.0,33.2,30.21,SW,217,0.0,0.0,97,0.00,,,0.00,weather-2.5,2013-04-30 06:18:00,
2013-04-30 02:23:00,34.1,33.3,30.21,SW,217,0.0,0.0,97,0.00,,,0.00,weather-2.5,2013-04-30 06:23:00,
2013-04-30 02:28:00,34.2,33.4,30.21,SW,217,0.0,0.0,97,0.00,,,0.00,weather-2.5,2013-04-30 06:28:00,
2013-04-30 02:33:00,34.3,33.5,30.21,SW,217,0.0,0.0,97,0.00,,,0.00,weather-2.5,2013-04-30 06:33:00,
2013-04-30 02:38:00,34.4,33.6,30.21,SW,217,0.0,0.0,97,0.00,,,0.00,weather-2.5,2013-04-30 06:38:00,
2013-04-30 02:43:00,34.3,33.5,30.21,SW,217,0.0,0.0,97,0.00,,,0.00,weather-2.5,2013-04-30 06:43:00,
2013-04-30 02:48:00,34.0,33.2,30.21,South,181,0.0,0.0,97,0.00,,,0.00,weather-2.5,2013-04-30 06:48:00,
2013-04-30 02:53:00,33.7,32.9,30.21,NE,41,0.0,0.0,97,0.00,,,0.00,weather-2.5,2013-04-30 06:53:00,
2013-04-30 02:58:00,34.1,33.3,30.21,NE,41,0.0,0.0,97,0.00,,,0.00,weather-2.5,2013-04-30 06:58:00,
2013-04-30 03:03:00,34.2,33.4,30.22,NE,41,0.0,0.0,97,0.00,,,0.00,weather-2.5,2013-04-30 07:03:00,
2013-04-30 03:08:00,34.1,33.3,30.22,NE,41,0.0,0.0,97,0.00,,,0.00,weather-2.5,2013-04-30 07:08:00,
2013-04-30 03:13:00,33.8,33.0,30.22,NE,41,0.0,0.0,97,0.00,,,0.00,weather-2.5,2013-04-30 07:13:00,
2013-04-30 03:18:00,33.5,32.7,30.22,NE,41,0.0,0.0,97,0.00,,,0.00,weather-2.5,2013-04-30 07:18:00,
2013-04-30 03:23:00,33.3,32.5,30.22,NE,41,0.0,0.0,97,0.00,,,0.00,weather-2.5,2013-04-30 07:23:00,
2013-04-30 03:28:00,33.2,32.4,30.22,NE,41,0.0,0.0,97,0.00,,,0.00,weather-2.5,2013-04-30 07:28:00,
2013-04-30 03:33:00,33.1,32.3,30.22,NE,41,0.0,0.0,97,0.00,,,0.00,weather-2.5,2013-04-30 07:33:00,
2013-04-30 03:38:00,33.2,32.4,30.22,NE,41,0.0,0.0,97,0.00,,,0.00,weather-2.5,2013-04-30 07:38:00,
2013-04-30 03:43:00,33.1,32.3,30.22,NE,41,0.0,0.0,97,0.00,,,0.00,weather-2.5,2013-04-30 07:43:00,
2013-04-30 03:48:00,33.2,32.4,30.22,NE,41,0.0,0.0,97,0.00,,,0.00,weather-2.5,2013-04-30 07:48:00,
2013-04-30 03:53:00,33.3,32.8,30.22,NE,41,0.0,0.0,98,0.00,,,0.00,weather-2.5,2013-04-30 07:53:00,
2013-04-30 03:58:00,33.2,32.4,30.22,NE,41,0.0,0.0,97,0.00,,,0.00,weather-2.5,2013-04-30 07:58:00,
2013-04-30 04:03:00,33.1,32.6,30.22,NE,41,0.0,0.0,98,0.00,,,0.00,weather-2.5,2013-04-30 08:03:00,
2013-04-30 04:08:00,33.1,32.6,30.22,NE,41,0.0,0.0,98,0.00,,,0.00,weather-2.5,2013-04-30 08:08:00,
2013-04-30 04:13:00,32.9,32.1,30.22,NE,41,0.0,0.0,97,0.00,,,0.00,weather-2.5,2013-04-30 08:13:00,
2013-04-30 04:18:00,32.8,32.0,30.23,NE,41,0.0,0.0,97,0.00,,,0.00,weather-2.5,2013-04-30 08:18:00,
2013-04-30 04:23:00,32.7,31.9,30.23,NE,41,0.0,0.0,97,0.00,,,0.00,weather-2.5,2013-04-30 08:23:00,
2013-04-30 04:28:00,32.6,31.8,30.23,NE,41,0.0,0.0,97,0.00,,,0.00,weather-2.5,2013-04-30 08:28:00,
2013-04-30 04:33:00,32.5,31.7,30.23,NE,41,0.0,0.0,97,0.00,,,0.00,weather-2.5,2013-04-30 08:33:00,
2013-04-30 04:38:00,32.3,31.5,30.23,NE,41,0.0,0.0,97,0.00,,,0.00,weather-2.5,2013-04-30 08:38:00,
2013-04-30 04:43:00,32.0,31.2,30.23,NE,41,0.0,0.0,97,0.00,,,0.00,weather-2.5,2013-04-30 08:43:00,
2013-04-30 04:48:00,32.1,31.3,30.23,NE,41,0.0,0.0,97,0.00,,,0.00,weather-2.5,2013-04-30 08:48:00,
2013-04-30 04:53:00,32.1,31.3,30.23,NE,41,0.0,0.0,97,0.00,,,0.00,weather-2.5,2013-04-30 08:53:00,
2013-04-30 04:58:00,32.0,31.2,30.23,NE,41,0.0,0.0,97,0.00,,,0.00,weather-2.5,2013-04-30 08:58:00,
2013-04-30 05:03:00,31.6,30.8,30.23,NE,41,0.0,0.0,97,0.00,,,0.00,weather-2.5,2013-04-30 09:03:00,
2013-04-30 05:08:00,31.4,30.6,30.23,NE,41,0.0,0.0,97,0.00,,,0.00,weather-2.5,2013-04-30 09:08:00,
2013-04-30 05:13:00,31.7,31.2,30.24,NE,41,0.0,0.0,98,0.00,,,0.00,weather-2.5,2013-04-30 09:13:00,
2013-04-30 05:18:00,31.9,31.4,30.24,NE,41,0.0,0.0,98,0.00,,,0.00,weather-2.5,2013-04-30 09:18:00,
2013-04-30 05:23:00,31.9,31.4,30.24,NE,41,0.0,0.0,98,0.00,,,0.00,weather-2.5,2013-04-30 09:23:00,
2013-04-30 05:28:00,31.6,31.1,30.24,NE,41,0.0,0.0,98,0.00,,,0.00,weather-2.5,2013-04-30 09:28:00,
2013-04-30 05:33:00,31.4,30.9,30.24,NE,41,0.0,0.0,98,0.00,,,0.00,weather-2.5,2013-04-30 09:33:00,
2013-04-30 05:38:00,31.0,30.5,30.24,NE,41,0.0,0.0,98,0.00,,,0.00,weather-2.5,2013-04-30 09:38:00,
2013-04-30 05:43:00,31.3,30.8,30.24,NE,41,0.0,0.0,98,0.00,,,0.00,weather-2.5,2013-04-30 09:43:00,
2013-04-30 05:48:00,31.6,31.1,30.25,NE,41,0.0,0.0,98,0.00,,,0.00,weather-2.5,2013-04-30 09:48:00,
2013-04-30 05:53:00,31.7,31.2,30.25,NE,41,0.0,0.0,98,0.00,,,0.00,weather-2.5,2013-04-30 09:53:00,
2013-04-30 05:58:00,31.7,31.2,30.25,NE,41,0.0,0.0,98,0.00,,,0.00,weather-2.5,2013-04-30 09:58:00,
2013-04-30 06:03:00,32.0,31.5,30.25,NE,41,0.0,0.0,98,0.00,,,0.00,weather-2.5,2013-04-30 10:03:00,
2013-04-30 06:08:00,32.8,32.3,30.26,ENE,58,0.0,0.0,98,0.00,,,0.00,weather-2.5,2013-04-30 10:08:00,
2013-04-30 06:13:00,33.5,33.0,30.26,ENE,58,0.0,0.0,98,0.00,,,0.00,weather-2.5,2013-04-30 10:13:00,
2013-04-30 06:18:00,34.1,33.6,30.26,ENE,58,0.0,0.0,98,0.00,,,0.00,weather-2.5,2013-04-30 10:18:00,
2013-04-30 06:23:00,34.8,34.3,30.26,ENE,58,0.0,0.0,98,0.00,,,0.00,weather-2.5,2013-04-30 10:23:00,
2013-04-30 06:28:00,36.0,35.5,30.26,ENE,58,0.0,0.0,98,0.00,,,0.00,weather-2.5,2013-04-30 10:28:00,
2013-04-30 06:33:00,37.2,36.7,30.26,ENE,58,0.0,0.0,98,0.00,,,0.00,weather-2.5,2013-04-30 10:33:00,
2013-04-30 06:38:00,37.9,37.4,30.26,ENE,58,0.0,0.0,98,0.00,,,0.00,weather-2.5,2013-04-30 10:38:00,
2013-04-30 06:43:00,37.7,37.2,30.27,ENE,58,0.0,0.0,98,0.00,,,0.00,weather-2.5,2013-04-30 10:43:00,
2013-04-30 06:48:00,38.7,38.2,30.27,ENE,58,0.0,0.0,98,0.00,,,0.00,weather-2.5,2013-04-30 10:48:00,
2013-04-30 06:53:00,38.6,38.1,30.27,ENE,58,0.0,0.0,98,0.00,,,0.00,weather-2.5,2013-04-30 10:53:00,
2013-04-30 06:58:00,39.2,38.7,30.27,East,80,1.0,1.0,98,0.00,,,0.00,weather-2.5,2013-04-30 10:58:00,
2013-04-30 07:03:00,39.7,39.2,30.27,East,85,0.0,1.0,98,0.00,,,0.00,weather-2.5,2013-04-30 11:03:00,
2013-04-30 07:08:00,40.1,39.6,30.27,ESE,102,1.0,1.0,98,0.00,,,0.00,weather-2.5,2013-04-30 11:08:00,
2013-04-30 07:13:00,40.7,40.2,30.27,East,92,1.0,2.0,98,0.00,,,0.00,weather-2.5,2013-04-30 11:13:00,
2013-04-30 07:18:00,41.5,41.0,30.27,East,88,0.0,1.0,98,0.00,,,0.00,weather-2.5,2013-04-30 11:18:00,
2013-04-30 07:23:00,42.3,41.8,30.27,East,97,1.0,2.0,98,0.00,,,0.00,weather-2.5,2013-04-30 11:23:00,
2013-04-30 07:28:00,42.7,42.2,30.28,ESE,109,1.0,1.0,98,0.00,,,0.00,weather-2.5,2013-04-30 11:28:00,
2013-04-30 07:33:00,43.4,42.6,30.28,ENE,78,0.0,0.0,97,0.00,,,0.00,weather-2.5,2013-04-30 11:33:00,
2013-04-30 07:38:00,44.0,43.2,30.28,East,85,1.0,2.0,97,0.00,,,0.00,weather-2.5,2013-04-30 11:38:00,
2013-04-30 07:43:00,44.6,43.3,30.28,East,86,2.0,2.0,95,0.00,,,0.00,weather-2.5,2013-04-30 11:43:00,
2013-04-30 07:48:00,45.2,43.0,30.28,ENE,78,2.0,4.0,92,0.00,,,0.00,weather-2.5,2013-04-30 11:48:00,
2013-04-30 07:53:00,45.4,42.6,30.28,ENE,72,2.0,3.0,90,0.00,,,0.00,weather-2.5,2013-04-30 11:53:00,
2013-04-30 07:58:00,45.8,43.0,30.28,ENE,77,2.0,2.0,90,0.00,,,0.00,weather-2.5,2013-04-30 11:58:00,
2013-04-30 08:03:00,46.4,43.0,30.28,East,84,1.0,2.0,88,0.00,,,0.00,weather-2.5,2013-04-30 12:03:00,
2013-04-30 08:08:00,46.9,43.5,30.28,East,85,2.0,3.0,88,0.00,,,0.00,weather-2.5,2013-04-30 12:08:00,
2013-04-30 08:13:00,47.4,43.7,30.28,East,82,2.0,3.0,87,0.00,,,0.00,weather-2.5,2013-04-30 12:13:00,
2013-04-30 08:18:00,47.9,44.2,30.28,East,101,1.0,2.0,87,0.00,,,0.00,weather-2.5,2013-04-30 12:18:00,
2013-04-30 08:23:00,48.5,44.2,30.28,East,83,2.0,2.0,85,0.00,,,0.00,weather-2.5,2013-04-30 12:23:00,
2013-04-30 08:28:00,49.0,44.4,30.28,East,88,2.0,3.0,84,0.00,,,0.00,weather-2.5,2013-04-30 12:28:00,
2013-04-30 08:33:00,49.5,44.6,30.28,East,101,0.0,1.0,83,0.00,,,0.00,weather-2.5,2013-04-30 12:33:00,
2013-04-30 08:38:00,50.1,44.8,30.28,ENE,71,1.0,0.0,82,0.00,,,0.00,weather-2.5,2013-04-30 12:38:00,
2013-04-30 08:43:00,50.6,44.0,30.28,NE,45,1.0,1.0,78,0.00,,,0.00,weather-2.5,2013-04-30 12:43:00,
2013-04-30 08:48:00,51.1,44.5,30.29,NNE,31,2.0,2.0,78,0.00,,,0.00,weather-2.5,2013-04-30 12:48:00,
2013-04-30 08:53:00,51.5,44.9,30.29,ENE,65,2.0,2.0,78,0.00,,,0.00,weather-2.5,2013-04-30 12:53:00,
2013-04-30 08:58:00,52.1,44.4,30.28,ENE,60,2.0,2.0,75,0.00,,,0.00,weather-2.5,2013-04-30 12:58:00,
2013-04-30 09:03:00,52.4,43.7,30.28,ENE,60,1.0,1.0,72,0.00,,,0.00,weather-2.5,2013-04-30 13:03:00,
2013-04-30 09:08:00,53.0,44.2,30.28,NE,41,1.0,2.0,72,0.00,,,0.00,weather-2.5,2013-04-30 13:08:00,
2013-04-30 09:13:00,53.8,44.3,30.29,SE,129,1.0,2.0,70,0.00,,,0.00,weather-2.5,2013-04-30 13:13:00,
2013-04-30 09:18:00,54.6,43.5,30.28,East,81,0.0,1.0,66,0.00,,,0.00,weather-2.5,2013-04-30 13:18:00,
2013-04-30 09:23:00,55.6,44.8,30.28,East,79,0.0,0.0,67,0.00,,,0.00,weather-2.5,2013-04-30 13:23:00,
2013-04-30 09:28:00,56.4,44.0,30.28,WSW,252,0.0,0.0,63,0.00,,,0.00,weather-2.5,2013-04-30 13:28:00,
2013-04-30 09:33:00,56.6,43.7,30.28,West,268,0.0,1.0,62,0.00,,,0.00,weather-2.5,2013-04-30 13:33:00,
2013-04-30 09:38:00,57.3,44.0,30.28,ESE,107,2.0,2.0,61,0.00,,,0.00,weather-2.5,2013-04-30 13:38:00,
2013-04-30 09:43:00,58.1,45.2,30.28,ENE,61,1.0,2.0,62,0.00,,,0.00,weather-2.5,2013-04-30 13:43:00,
2013-04-30 09:48:00,58.5,44.2,30.28,NE,47,1.0,1.0,59,0.00,,,0.00,weather-2.5,2013-04-30 13:48:00,
2013-04-30 09:53:00,58.7,44.4,30.28,East,90,1.0,1.0,59,0.00,,,0.00,weather-2.5,2013-04-30 13:53:00,
2013-04-30 09:58:00,59.1,43.4,30.28,ESE,116,2.0,5.0,56,0.00,,,0.00,weather-2.5,2013-04-30 13:58:00,
2013-04-30 10:03:00,59.6,43.9,30.28,West,279,0.0,1.0,56,0.00,,,0.00,weather-2.5,2013-04-30 14:03:00,
2013-04-30 10:08:00,60.3,44.6,30.28,ENE,75,1.0,1.0,56,0.00,,,0.00,weather-2.5,2013-04-30 14:08:00,
2013-04-30 10:13:00,61.1,41.8,30.28,SE,136,4.0,4.0,49,0.00,,,0.00,weather-2.5,2013-04-30 14:13:00,
2013-04-30 10:18:00,61.4,43.1,30.28,SW,216,3.0,5.0,51,0.00,,,0.00,weather-2.5,2013-04-30 14:18:00,
2013-04-30 10:23:00,61.6,40.6,30.28,SW,226,3.0,3.0,46,0.00,,,0.00,weather-2.5,2013-04-30 14:23:00,
2013-04-30 10:28:00,62.2,42.3,30.28,SSW,212,2.0,3.0,48,0.00,,,0.00,weather-2.5,2013-04-30 14:28:00,
2013-04-30 10:33:00,62.4,41.4,30.28,SW,232,1.0,1.0,46,0.00,,,0.00,weather-2.5,2013-04-30 14:33:00,
2013-04-30 10:38:00,62.8,42.3,30.28,SSW,209,5.0,5.0,47,0.00,,,0.00,weather-2.5,2013-04-30 14:38:00,
2013-04-30 10:43:00,63.2,44.8,30.28,SE,130,3.0,4.0,51,0.00,,,0.00,weather-2.5,2013-04-30 14:43:00,
2013-04-30 10:48:00,63.4,45.0,30.28,SSW,196,3.0,3.0,51,0.00,,,0.00,weather-2.5,2013-04-30 14:48:00,
2013-04-30 10:53:00,63.6,45.7,30.28,SE,126,4.0,7.0,52,0.00,,,0.00,weather-2.5,2013-04-30 14:53:00,
2013-04-30 10:58:00,63.8,44.8,30.28,SE,124,4.0,4.0,50,0.00,,,0.00,weather-2.5,2013-04-30 14:58:00,
2013-04-30 11:03:00,64.3,44.2,30.28,SSE,148,5.0,5.0,48,0.00,,,0.00,weather-2.5,2013-04-30 15:03:00,
2013-04-30 11:08:00,64.1,44.0,30.28,SSE,158,5.0,5.0,48,0.00,,,0.00,weather-2.5,2013-04-30 15:08:00,
2013-04-30 11:13:00,64.2,43.6,30.28,SE,134,5.0,5.0,47,0.00,,,0.00,weather-2.5,2013-04-30 15:13:00,
2013-04-30 11:18:00,64.0,41.7,30.28,ESE,118,6.0,7.0,44,0.00,,,0.00,weather-2.5,2013-04-30 15:18:00,
2013-04-30 11:23:00,63.6,38.9,30.28,SE,132,6.0,6.0,40,0.00,,,0.00,weather-2.5,2013-04-30 15:23:00,
2013-04-30 11:28:00,63.8,39.0,30.28,SSW,200,3.0,4.0,40,0.00,,,0.00,weather-2.5,2013-04-30 15:28:00,
2013-04-30 11:33:00,63.9,35.0,30.27,SE,138,6.0,6.0,34,0.00,,,0.00,weather-2.5,2013-04-30 15:33:00,
2013-04-30 11:38:00,63.6,36.9,30.27,SSW,212,6.0,7.0,37,0.00,,,0.00,weather-2.5,2013-04-30 15:38:00,
2013-04-30 11:43:00,64.3,39.5,30.27,SSW,199,3.0,3.0,40,0.00,,,0.00,weather-2.5,2013-04-30 15:43:00,
2013-04-30 11:48:00,64.6,40.4,30.27,South,187,5.0,8.0,41,0.00,,,0.00,weather-2.5,2013-04-30 15:48:00,
2013-04-30 11:53:00,64.2,38.1,30.27,SSE,156,7.0,9.0,38,0.00,,,0.00,weather-2.5,2013-04-30 15:53:00,
2013-04-30 11:58:00,63.9,37.8,30.27,South,190,8.0,8.0,38,0.00,,,0.00,weather-2.5,2013-04-30 15:58:00,
2013-04-30 12:03:00,63.8,39.7,30.27,SE,142,4.0,4.0,41,0.00,,,0.00,weather-2.5,2013-04-30 16:03:00,
2013-04-30 12:08:00,63.7,38.9,30.27,South,184,4.0,5.0,40,0.00,,,0.00,weather-2.5,2013-04-30 16:08:00,
2013-04-30 12:13:00,63.6,39.5,30.27,SSE,157,6.0,7.0,41,0.00,,,0.00,weather-2.5,2013-04-30 16:13:00,
2013-04-30 12:18:00,63.7,37.6,30.27,SW,216,7.0,7.0,38,0.00,,,0.00,weather-2.5,2013-04-30 16:18:00,
2013-04-30 12:23:00,63.4,38.0,30.27,SSW,207,6.0,6.0,39,0.00,,,0.00,weather-2.5,2013-04-30 16:23:00,
2013-04-30 12:28:00,63.4,41.7,30.27,South,173,3.0,3.0,45,0.00,,,0.00,weather-2.5,2013-04-30 16:28:00,
2013-04-30 12:33:00,63.2,37.9,30.27,SSE,149,7.0,7.0,39,0.00,,,0.00,weather-2.5,2013-04-30 16:33:00,
2013-04-30 12:38:00,63.0,38.3,30.27,South,171,5.0,5.0,40,0.00,,,0.00,weather-2.5,2013-04-30 16:38:00,
2013-04-30 12:43:00,62.8,37.5,30.27,SSE,155,6.0,10.0,39,0.00,,,0.00,weather-2.5,2013-04-30 16:43:00,
2013-04-30 12:48:00,62.6,38.6,30.27,SSE,157,4.0,6.0,41,0.00,,,0.00,weather-2.5,2013-04-30 16:48:00,
2013-04-30 12:53:00,62.7,38.1,30.27,SSE,149,6.0,6.0,40,0.00,,,0.00,weather-2.5,2013-04-30 16:53:00,
2013-04-30 12:58:00,62.8,37.5,30.27,SE,141,7.0,8.0,39,0.00,,,0.00,weather-2.5,2013-04-30 16:58:00,
2013-04-30 13:03:00,62.8,37.5,30.27,SE,145,6.0,6.0,39,0.00,,,0.00,weather-2.5,2013-04-30 17:03:00,
2013-04-30 13:08:00,63.1,35.0,30.27,South,191,7.0,7.0,35,0.00,,,0.00,weather-2.5,2013-04-30 17:08:00,
2013-04-30 13:13:00,63.0,35.7,30.27,SE,135,5.0,9.0,36,0.00,,,0.00,weather-2.5,2013-04-30 17:13:00,
2013-04-30 13:18:00,63.2,34.4,30.27,SSE,168,5.0,5.0,34,0.00,,,0.00,weather-2.5,2013-04-30 17:18:00,
2013-04-30 13:23:00,63.3,34.5,30.27,South,174,6.0,10.0,34,0.00,,,0.00,weather-2.5,2013-04-30 17:23:00,
2013-04-30 13:28:00,63.1,35.7,30.27,SSE,149,5.0,7.0,36,0.00,,,0.00,weather-2.5,2013-04-30 17:28:00,
2013-04-30 13:33:00,63.0,34.9,30.27,SE,125,8.0,8.0,35,0.00,,,0.00,weather-2.5,2013-04-30 17:33:00,
2013-04-30 13:38:00,63.3,35.9,30.27,ESE,123,6.0,8.0,36,0.00,,,0.00,weather-2.5,2013-04-30 17:38:00,
2013-04-30 13:43:00,63.6,34.0,30.27,SSE,150,5.0,10.0,33,0.00,,,0.00,weather-2.5,2013-04-30 17:43:00,
2013-04-30 13:48:00,63.4,33.8,30.27,SSE,163,7.0,7.0,33,0.00,,,0.00,weather-2.5,2013-04-30 17:48:00,
2013-04-30 13:53:00,63.3,34.5,30.27,SSE,166,6.0,6.0,34,0.00,,,0.00,weather-2.5,2013-04-30 17:53:00,
2013-04-30 13:58:00,63.2,34.4,30.27,South,179,6.0,7.0,34,0.00,,,0.00,weather-2.5,2013-04-30 17:58:00,
2013-04-30 14:03:00,63.5,34.7,30.27,SSW,195,5.0,9.0,34,0.00,,,0.00,weather-2.5,2013-04-30 18:03:00,
2013-04-30 14:08:00,63.5,34.7,30.27,SSE,155,5.0,9.0,34,0.00,,,0.00,weather-2.5,2013-04-30 18:08:00,
2013-04-30 14:13:00,63.6,36.2,30.27,SSW,201,5.0,5.0,36,0.00,,,0.00,weather-2.5,2013-04-30 18:13:00,
2013-04-30 14:18:00,63.8,34.2,30.27,South,189,8.0,8.0,33,0.00,,,0.00,weather-2.5,2013-04-30 18:18:00,
2013-04-30 14:23:00,63.7,33.3,30.27,SSE,163,6.0,13.0,32,0.00,,,0.00,weather-2.5,2013-04-30 18:23:00,
2013-04-30 14:28:00,63.5,32.4,30.27,South,169,8.0,8.0,31,0.00,,,0.00,weather-2.5,2013-04-30 18:28:00,
2013-04-30 14:33:00,63.4,33.1,30.27,South,171,6.0,8.0,32,0.00,,,0.00,weather-2.5,2013-04-30 18:33:00,
2013-04-30 14:38:00,63.3,34.5,30.27,SSE,160,5.0,10.0,34,0.00,,,0.00,weather-2.5,2013-04-30 18:38:00,
2013-04-30 14:43:00,63.5,35.4,30.27,SSE,168,5.0,5.0,35,0.00,,,0.00,weather-2.5,2013-04-30 18:43:00,
2013-04-30 14:48:00,63.8,35.6,30.27,ESE,122,6.0,6.0,35,0.00,,,0.00,weather-2.5,2013-04-30 18:48:00,
2013-04-30 14:53:00,63.8,33.4,30.27,SSE,151,5.0,5.0,32,0.00,,,0.00,weather-2.5,2013-04-30 18:53:00,
2013-04-30 14:58:00,63.9,34.3,30.27,SSE,164,5.0,8.0,33,0.00,,,0.00,weather-2.5,2013-04-30 18:58:00,
2013-04-30 15:03:00,63.7,33.3,30.27,SSE,168,7.0,9.0,32,0.00,,,0.00,weather-2.5,2013-04-30 19:03:00,
2013-04-30 15:08:00,63.7,34.8,30.27,SSE,150,3.0,3.0,34,0.00,,,0.00,weather-2.5,2013-04-30 19:08:00,
2013-04-30 15:13:00,63.3,35.2,30.27,SE,138,5.0,5.0,35,0.00,,,0.00,weather-2.5,2013-04-30 19:13:00,
2013-04-30 15:18:00,63.3,35.2,30.27,SSE,160,5.0,5.0,35,0.00,,,0.00,weather-2.5,2013-04-30 19:18:00,
2013-04-30 15:23:00,63.4,34.6,30.27,South,188,4.0,4.0,34,0.00,,,0.00,weather-2.5,2013-04-30 19:23:00,
2013-04-30 15:28:00,63.3,33.0,30.27,South,177,5.0,5.0,32,0.00,,,0.00,weather-2.5,2013-04-30 19:28:00,
2013-04-30 15:33:00,63.1,34.3,30.27,SSE,162,4.0,4.0,34,0.00,,,0.00,weather-2.5,2013-04-30 19:33:00,
2013-04-30 15:38:00,63.3,35.2,30.27,SE,138,5.0,5.0,35,0.00,,,0.00,weather-2.5,2013-04-30 19:38:00,
2013-04-30 15:43:00,63.2,34.4,30.27,South,182,5.0,5.0,34,0.00,,,0.00,weather-2.5,2013-04-30 19:43:00,
2013-04-30 15:48:00,63.2,35.1,30.27,SE,133,4.0,5.0,35,0.00,,,0.00,weather-2.5,2013-04-30 19:48:00,
2013-04-30 15:53:00,62.8,34.0,30.27,SSE,160,8.0,9.0,34,0.00,,,0.00,weather-2.5,2013-04-30 19:53:00,
2013-04-30 15:58:00,62.7,35.4,30.27,SE,133,5.0,5.0,36,0.00,,,0.00,weather-2.5,2013-04-30 19:58:00,
2013-04-30 16:03:00,62.5,35.9,30.27,South,179,3.0,4.0,37,0.00,,,0.00,weather-2.5,2013-04-30 20:03:00,
2013-04-30 16:08:00,62.1,36.2,30.27,SSE,165,7.0,7.0,38,0.00,,,0.00,weather-2.5,2013-04-30 20:08:00,
2013-04-30 16:13:00,61.6,37.1,30.27,SE,143,7.0,7.0,40,0.00,,,0.00,weather-2.5,2013-04-30 20:13:00,
2013-04-30 16:18:00,61.3,36.2,30.27,SSE,156,6.0,6.0,39,0.00,,,0.00,weather-2.5,2013-04-30 20:18:00,
2013-04-30 16:23:00,61.2,36.1,30.27,SE,134,7.0,7.0,39,0.00,,,0.00,weather-2.5,2013-04-30 20:23:00,
2013-04-30 16:28:00,61.5,37.0,30.27,South,180,4.0,4.0,40,0.00,,,0.00,weather-2.5,2013-04-30 20:28:00,
2013-04-30 16:33:00,61.9,35.4,30.27,South,189,5.0,5.0,37,0.00,,,0.00,weather-2.5,2013-04-30 20:33:00,
2013-04-30 16:38:00,61.7,34.5,30.27,SSE,156,5.0,5.0,36,0.00,,,0.00,weather-2.5,2013-04-30 20:38:00,
2013-04-30 16:43:00,61.8,35.3,30.27,SSE,168,5.0,6.0,37,0.00,,,0.00,weather-2.5,2013-04-30 20:43:00,
2013-04-30 16:48:00,61.9,35.4,30.27,SSE,148,3.0,4.0,37,0.00,,,0.00,weather-2.5,2013-04-30 20:48:00,
2013-04-30 16:53:00,61.9,35.4,30.27,ESE,115,5.0,5.0,37,0.00,,,0.00,weather-2.5,2013-04-30 20:53:00,
2013-04-30 16:58:00,61.7,33.8,30.27,SE,141,6.0,6.0,35,0.00,,,0.00,weather-2.5,2013-04-30 20:58:00,
2013-04-30 17:03:00,61.6,35.1,30.27,South,173,4.0,4.0,37,0.00,,,0.00,weather-2.5,2013-04-30 21:03:00,
2013-04-30 17:08:00,61.4,34.2,30.27,SE,141,5.0,5.0,36,0.00,,,0.00,weather-2.5,2013-04-30 21:08:00,
2013-04-30 17:13:00,61.2,34.1,30.27,South,180,4.0,6.0,36,0.00,,,0.00,weather-2.5,2013-04-30 21:13:00,
2013-04-30 17:18:00,60.9,35.1,30.27,South,178,6.0,6.0,38,0.00,,,0.00,weather-2.5,2013-04-30 21:18:00,
2013-04-30 17:23:00,60.8,35.7,30.27,SSE,162,5.0,5.0,39,0.00,,,0.00,weather-2.5,2013-04-30 21:23:00,
2013-04-30 17:28:00,60.9,35.8,30.28,SSE,166,4.0,4.0,39,0.00,,,0.00,weather-2.5,2013-04-30 21:28:00,
2013-04-30 17:33:00,61.0,35.9,30.28,SSE,165,5.0,5.0,39,0.00,,,0.00,weather-2.5,2013-04-30 21:33:00,
2013-04-30 17:38:00,60.8,35.1,30.28,South,174,4.0,6.0,38,0.00,,,0.00,weather-2.5,2013-04-30 21:38:00,
2013-04-30 17:43:00,60.5,35.4,30.28,SSE,161,6.0,6.0,39,0.00,,,0.00,weather-2.5,2013-04-30 21:43:00,
2013-04-30 17:48:00,60.4,36.0,30.28,South,187,3.0,3.0,40,0.00,,,0.00,weather-2.5,2013-04-30 21:48:00,
2013-04-30 17:53:00,60.4,36.0,30.28,South,186,4.0,4.0,40,0.00,,,0.00,weather-2.5,2013-04-30 21:53:00,
2013-04-30 17:58:00,60.1,37.0,30.28,SE,140,5.0,5.0,42,0.00,,,0.00,weather-2.5,2013-04-30 21:58:00,
2013-04-30 18:03:00,59.8,37.9,30.28,South,182,5.0,6.0,44,0.00,,,0.00,weather-2.5,2013-04-30 22:03:00,
2013-04-30 18:08:00,59.6,37.1,30.28,SSE,152,2.0,5.0,43,0.00,,,0.00,weather-2.5,2013-04-30 22:08:00,
2013-04-30 18:13:00,59.4,36.9,30.28,South,169,5.0,5.0,43,0.00,,,0.00,weather-2.5,2013-04-30 22:13:00,
2013-04-30 18:18:00,59.1,37.2,30.28,South,176,3.0,3.0,44,0.00,,,0.00,weather-2.5,2013-04-30 22:18:00,
2013-04-30 18:23:00,59.0,37.7,30.28,SSE,147,4.0,4.0,45,0.00,,,0.00,weather-2.5,2013-04-30 22:23:00,
2013-04-30 18:28:00,58.4,37.7,30.28,SSE,154,5.0,5.0,46,0.00,,,0.00,weather-2.5,2013-04-30 22:28:00,
2013-04-30 18:33:00,58.3,38.2,30.28,SSW,199,3.0,3.0,47,0.00,,,0.00,weather-2.5,2013-04-30 22:33:00,
2013-04-30 18:38:00,58.3,38.2,30.29,South,181,3.0,5.0,47,0.00,,,0.00,weather-2.5,2013-04-30 22:38:00,
2013-04-30 18:43:00,58.2,38.1,30.29,SSW,197,2.0,2.0,47,0.00,,,0.00,weather-2.5,2013-04-30 22:43:00,
2013-04-30 18:48:00,57.9,38.3,30.29,SSE,164,2.0,3.0,48,0.00,,,0.00,weather-2.5,2013-04-30 22:48:00,
2013-04-30 18:53:00,57.4,38.4,30.28,SE,141,2.0,2.0,49,0.00,,,0.00,weather-2.5,2013-04-30 22:53:00,
2013-04-30 18:58:00,57.1,39.2,30.29,SSE,161,1.0,2.0,51,0.00,,,0.00,weather-2.5,2013-04-30 22:58:00,
2013-04-30 19:03:00,56.4,38.5,30.29,SSE,161,3.0,3.0,51,0.00,,,0.00,weather-2.5,2013-04-30 23:03:00,
2013-04-30 19:08:00,55.7,38.8,30.29,SSE,159,1.0,0.0,53,0.00,,,0.00,weather-2.5,2013-04-30 23:08:00,
2013-04-30 19:13:00,54.9,38.6,30.29,SSE,151,2.0,2.0,54,0.00,,,0.00,weather-2.5,2013-04-30 23:13:00,
2013-04-30 19:18:00,54.3,38.5,30.29,SSE,158,2.0,2.0,55,0.00,,,0.00,weather-2.5,2013-04-30 23:18:00,
2013-04-30 19:23:00,53.8,38.0,30.29,SSE,165,2.0,2.0,55,0.00,,,0.00,weather-2.5,2013-04-30 23:23:00,
2013-04-30 19:28:00,53.2,38.4,30.29,SE,134,1.0,0.0,57,0.00,,,0.00,weather-2.5,2013-04-30 23:28:00,
2013-04-30 19:33:00,52.7,38.8,30.29,SSE,151,1.0,1.0,59,0.00,,,0.00,weather-2.5,2013-04-30 23:33:00,
2013-04-30 19:38:00,52.1,38.2,30.30,ESE,123,0.0,0.0,59,0.00,,,0.00,weather-2.5,2013-04-30 23:38:00,
2013-04-30 19:43:00,51.8,38.4,30.30,SE,145,0.0,0.0,60,0.00,,,0.00,weather-2.5,2013-04-30 23:43:00,
2013-04-30 19:48:00,51.2,39.1,30.30,SE,145,0.0,0.0,63,0.00,,,0.00,weather-2.5,2013-04-30 23:48:00,
2013-04-30 19:53:00,50.1,38.8,30.30,SE,145,0.0,0.0,65,0.00,,,0.00,weather-2.5,2013-04-30 23:53:00,
2013-04-30 19:58:00,49.0,38.9,30.30,SE,145,0.0,0.0,68,0.00,,,0.00,weather-2.5,2013-04-30 23:58:00,
2013-04-30 20:03:00,48.1,38.8,30.30,SE,145,0.0,0.0,70,0.00,,,0.00,weather-2.5,2013-05-01 00:03:00,
2013-04-30 20:08:00,47.2,39.3,30.30,SE,145,0.0,0.0,74,0.00,,,0.00,weather-2.5,2013-05-01 00:08:00,
2013-04-30 20:13:00,46.4,38.9,30.30,SE,145,0.0,0.0,75,0.00,,,0.00,weather-2.5,2013-05-01 00:13:00,
2013-04-30 20:18:00,45.7,38.6,30.31,SE,145,0.0,0.0,76,0.00,,,0.00,weather-2.5,2013-05-01 00:18:00,
2013-04-30 20:23:00,44.8,38.7,30.31,SE,145,0.0,0.0,79,0.00,,,0.00,weather-2.5,2013-05-01 00:23:00,
2013-04-30 20:28:00,44.0,38.6,30.31,SE,145,0.0,0.0,81,0.00,,,0.00,weather-2.5,2013-05-01 00:28:00,
2013-04-30 20:33:00,43.5,38.4,30.31,SE,145,0.0,0.0,82,0.00,,,0.00,weather-2.5,2013-05-01 00:33:00,
2013-04-30 20:38:00,43.0,38.2,30.31,SE,145,0.0,0.0,83,0.00,,,0.00,weather-2.5,2013-05-01 00:38:00,
2013-04-30 20:43:00,42.5,38.0,30.31,SE,145,0.0,0.0,84,0.00,,,0.00,weather-2.5,2013-05-01 00:43:00,
2013-04-30 20:48:00,42.2,37.7,30.32,SE,145,0.0,0.0,84,0.00,,,0.00,weather-2.5,2013-05-01 00:48:00,
2013-04-30 20:53:00,41.7,37.5,30.32,SE,145,0.0,0.0,85,0.00,,,0.00,weather-2.5,2013-05-01 00:53:00,
2013-04-30 20:58:00,41.3,37.7,30.32,SE,145,0.0,0.0,87,0.00,,,0.00,weather-2.5,2013-05-01 00:58:00,
2013-04-30 21:03:00,41.0,37.4,30.32,SE,145,0.0,0.0,87,0.00,,,0.00,weather-2.5,2013-05-01 01:03:00,
2013-04-30 21:08:00,40.7,37.1,30.32,SE,145,0.0,0.0,87,0.00,,,0.00,weather-2.5,2013-05-01 01:08:00,
2013-04-30 21:13:00,40.5,37.5,30.32,SE,145,0.0,0.0,89,0.00,,,0.00,weather-2.5,2013-05-01 01:13:00,
2013-04-30 21:18:00,40.5,37.5,30.32,SE,145,0.0,0.0,89,0.00,,,0.00,weather-2.5,2013-05-01 01:18:00,
2013-04-30 21:23:00,40.3,37.3,30.32,SE,145,0.0,0.0,89,0.00,,,0.00,weather-2.5,2013-05-01 01:23:00,
2013-04-30 21:28:00,40.0,37.0,30.33,SE,145,0.0,0.0,89,0.00,,,0.00,weather-2.5,2013-05-01 01:28:00,
2013-04-30 21:33:00,39.6,36.6,30.33,SE,145,0.0,0.0,89,0.00,,,0.00,weather-2.5,2013-05-01 01:33:00,
2013-04-30 21:38:00,39.2,36.5,30.33,SE,145,0.0,0.0,90,0.00,,,0.00,weather-2.5,2013-05-01 01:38:00,
2013-04-30 21:43:00,39.2,36.8,30.33,SE,145,0.0,0.0,91,0.00,,,0.00,weather-2.5,2013-05-01 01:43:00,
2013-04-30 21:48:00,38.8,36.1,30.33,SE,145,0.0,0.0,90,0.00,,,0.00,weather-2.5,2013-05-01 01:48:00,
2013-04-30 21:53:00,38.3,36.2,30.33,SE,145,0.0,0.0,92,0.00,,,0.00,weather-2.5,2013-05-01 01:53:00,
2013-04-30 21:58:00,38.3,36.2,30.33,SE,145,0.0,0.0,92,0.00,,,0.00,weather-2.5,2013-05-01 01:58:00,
2013-04-30 22:03:00,38.1,36.0,30.33,SE,145,0.0,0.0,92,0.00,,,0.00,weather-2.5,2013-05-01 02:03:00,
2013-04-30 22:08:00,37.9,35.8,30.33,SE,145,0.0,0.0,92,0.00,,,0.00,weather-2.5,2013-05-01 02:08:00,
2013-04-30 22:13:00,37.5,35.4,30.33,SE,145,0.0,0.0,92,0.00,,,0.00,weather-2.5,2013-05-01 02:13:00,
2013-04-30 22:18:00,37.1,35.0,30.33,SE,145,0.0,0.0,92,0.00,,,0.00,weather-2.5,2013-05-01 02:18:00,
2013-04-30 22:23:00,36.9,35.1,30.33,SE,145,0.0,0.0,93,0.00,,,0.00,weather-2.5,2013-05-01 02:23:00,
2013-04-30 22:28:00,36.9,35.3,30.33,SE,145,0.0,0.0,94,0.00,,,0.00,weather-2.5,2013-05-01 02:28:00,
2013-04-30 22:34:00,36.6,34.8,30.33,SE,145,0.0,0.0,93,0.00,,,0.00,weather-2.5,2013-05-01 02:34:00,
2013-04-30 22:39:00,36.5,34.9,30.33,SE,145,0.0,0.0,94,0.00,,,0.00,weather-2.5,2013-05-01 02:39:00,
2013-04-30 22:44:00,36.4,34.8,30.33,SE,145,0.0,0.0,94,0.00,,,0.00,weather-2.5,2013-05-01 02:44:00,
2013-04-30 22:51:00,36.0,34.4,30.33,SE,145,0.0,0.0,94,0.00,,,0.00,weather-2.5,2013-05-01 02:51:00,
2013-04-30 22:56:00,35.8,34.2,30.33,SE,145,0.0,0.0,94,0.00,,,0.00,weather-2.5,2013-05-01 02:56:00,
2013-04-30 23:01:00,35.7,34.1,30.33,SE,145,0.0,0.0,94,0.00,,,0.00,weather-2.5,2013-05-01 03:01:00,
2013-04-30 23:06:00,35.8,34.5,30.33,SE,145,0.0,0.0,95,0.00,,,0.00,weather-2.5,2013-05-01 03:06:00,
2013-04-30 23:11:00,35.8,34.5,30.33,SE,145,0.0,0.0,95,0.00,,,0.00,weather-2.5,2013-05-01 03:11:00,
2013-04-30 23:16:00,36.1,34.8,30.33,SW,227,0.0,0.0,95,0.00,,,0.00,weather-2.5,2013-05-01 03:16:00,
2013-04-30 23:21:00,35.5,33.7,30.33,SW,233,0.0,0.0,93,0.00,,,0.00,weather-2.5,2013-05-01 03:21:00,
2013-04-30 23:26:00,35.6,34.0,30.34,SW,233,0.0,0.0,94,0.00,,,0.00,weather-2.5,2013-05-01 03:26:00,
2013-04-30 23:31:00,35.4,33.8,30.34,SW,233,0.0,0.0,94,0.00,,,0.00,weather-2.5,2013-05-01 03:31:00,
2013-04-30 23:36:00,35.1,33.6,30.34,SW,233,0.0,0.0,94,0.00,,,0.00,weather-2.5,2013-05-01 03:36:00,
2013-04-30 23:41:00,34.7,32.9,30.34,SW,233,0.0,0.0,93,0.00,,,0.00,weather-2.5,2013-05-01 03:41:00,
2013-04-30 23:46:00,34.3,32.8,30.34,SW,233,0.0,0.0,94,0.00,,,0.00,weather-2.5,2013-05-01 03:46:00,
2013-04-30 23:51:00,34.3,32.8,30.35,SW,233,0.0,0.0,94,0.00,,,0.00,weather-2.5,2013-05-01 03:51:00,
2013-04-30 23:56:00,34.2,32.9,30.35,SW,233,0.0,0.0,95,0.00,,,0.00,weather-2.5,2013-05-01 03:56:00,